sensor_id;sensor_type;location;lat;lon;timestamp;temperature;humidity
20231;DHT22;10274;49.022;9.338;2022-12-18T00:02:02;-9.50;1.00
20231;DHT22;10274;49.022;9.338;2022-12-18T00:04:29;-9.40;1.00
20231;DHT22;10274;49.022;9.338;2022-12-18T00:06:56;-9.40;1.00
20231;DHT22;10274;49.022;9.338;2022-12-18T00:09:24;-9.40;1.00
20231;DHT22;10274;49.022;9.338;2022-12-18T00:11:51;-9.40;1.00
20231;DHT22;10274;49.022;9.338;2022-12-18T00:14:19;-9.20;1.00
20231;DHT22;10274;49.022;9.338;2022-12-18T00:16:46;-9.10;1.00
20231;DHT22;10274;49.022;9.338;2022-12-18T00:19:14;-9.20;1.00
20231;DHT22;10274;49.022;9.338;2022-12-18T00:21:41;-9.50;1.00
20231;DHT22;10274;49.022;9.338;2022-12-18T00:24:09;-9.60;1.00
20231;DHT22;10274;49.022;9.338;2022-12-18T00:26:37;-9.40;1.00
20231;DHT22;10274;49.022;9.338;2022-12-18T00:29:07;-9.20;1.00
20231;DHT22;10274;49.022;9.338;2022-12-18T00:31:36;-9.20;1.00
20231;DHT22;10274;49.022;9.338;2022-12-18T00:34:03;-9.20;1.00
20231;DHT22;10274;49.022;9.338;2022-12-18T00:36:31;-9.50;1.00
20231;DHT22;10274;49.022;9.338;2022-12-18T00:38:59;-9.50;1.00
20231;DHT22;10274;49.022;9.338;2022-12-18T00:41:26;-9.70;1.00
20231;DHT22;10274;49.022;9.338;2022-12-18T00:44:12;-9.60;1.00
20231;DHT22;10274;49.022;9.338;2022-12-18T00:46:41;-9.70;1.00
20231;DHT22;10274;49.022;9.338;2022-12-18T00:49:08;-9.80;1.00
20231;DHT22;10274;49.022;9.338;2022-12-18T00:51:42;-10.10;1.00
20231;DHT22;10274;49.022;9.338;2022-12-18T00:54:10;-10.00;1.00
20231;DHT22;10274;49.022;9.338;2022-12-18T00:56:37;-9.80;1.00
20231;DHT22;10274;49.022;9.338;2022-12-18T00:59:04;-9.80;1.00
20231;DHT22;10274;49.022;9.338;2022-12-18T01:01:31;-9.60;1.00
20231;DHT22;10274;49.022;9.338;2022-12-18T01:04:01;-9.60;1.00
20231;DHT22;10274;49.022;9.338;2022-12-18T01:06:27;-9.50;1.00
20231;DHT22;10274;49.022;9.338;2022-12-18T01:08:54;-9.40;1.00
20231;DHT22;10274;49.022;9.338;2022-12-18T01:11:22;-9.40;1.00
20231;DHT22;10274;49.022;9.338;2022-12-18T01:13:49;-9.70;1.00
20231;DHT22;10274;49.022;9.338;2022-12-18T01:16:16;-10.20;1.00
20231;DHT22;10274;49.022;9.338;2022-12-18T01:18:44;-10.10;1.00
20231;DHT22;10274;49.022;9.338;2022-12-18T01:21:14;-9.80;1.00
20231;DHT22;10274;49.022;9.338;2022-12-18T01:23:44;-9.60;1.00
20231;DHT22;10274;49.022;9.338;2022-12-18T01:26:13;-9.50;1.00
20231;DHT22;10274;49.022;9.338;2022-12-18T01:28:40;-9.50;1.00
20231;DHT22;10274;49.022;9.338;2022-12-18T01:31:12;-9.70;1.00
20231;DHT22;10274;49.022;9.338;2022-12-18T01:33:39;-9.80;1.00
20231;DHT22;10274;49.022;9.338;2022-12-18T01:36:06;-9.70;1.00
20231;DHT22;10274;49.022;9.338;2022-12-18T01:38:34;-9.70;1.00
20231;DHT22;10274;49.022;9.338;2022-12-18T01:41:02;-9.90;1.00
20231;DHT22;10274;49.022;9.338;2022-12-18T01:43:46;-9.90;1.00
20231;DHT22;10274;49.022;9.338;2022-12-18T01:46:13;-9.80;1.00
20231;DHT22;10274;49.022;9.338;2022-12-18T01:48:41;-9.80;1.00
20231;DHT22;10274;49.022;9.338;2022-12-18T01:51:09;-9.80;1.00
20231;DHT22;10274;49.022;9.338;2022-12-18T01:53:39;-10.00;1.00
20231;DHT22;10274;49.022;9.338;2022-12-18T01:56:07;-9.90;1.00
20231;DHT22;10274;49.022;9.338;2022-12-18T01:58:39;-9.90;1.00
20231;DHT22;10274;49.022;9.338;2022-12-18T02:01:08;-10.00;1.00
20231;DHT22;10274;49.022;9.338;2022-12-18T02:03:35;-10.00;1.00
20231;DHT22;10274;49.022;9.338;2022-12-18T02:06:06;-9.90;1.00
20231;DHT22;10274;49.022;9.338;2022-12-18T02:08:40;-9.70;1.00
20231;DHT22;10274;49.022;9.338;2022-12-18T02:11:17;-9.50;1.00
20231;DHT22;10274;49.022;9.338;2022-12-18T02:13:52;-9.60;1.00
20231;DHT22;10274;49.022;9.338;2022-12-18T02:16:25;-9.60;1.00
20231;DHT22;10274;49.022;9.338;2022-12-18T02:18:58;-9.40;1.00
20231;DHT22;10274;49.022;9.338;2022-12-18T02:21:32;-9.50;1.00
20231;DHT22;10274;49.022;9.338;2022-12-18T02:24:16;-10.00;1.00
20231;DHT22;10274;49.022;9.338;2022-12-18T02:26:47;-10.10;1.00
20231;DHT22;10274;49.022;9.338;2022-12-18T02:29:17;-9.80;1.00
20231;DHT22;10274;49.022;9.338;2022-12-18T02:31:48;-9.80;1.00
20231;DHT22;10274;49.022;9.338;2022-12-18T02:34:18;-9.80;1.00
20231;DHT22;10274;49.022;9.338;2022-12-18T02:36:46;-9.80;1.00
20231;DHT22;10274;49.022;9.338;2022-12-18T02:39:15;-9.80;1.00
20231;DHT22;10274;49.022;9.338;2022-12-18T02:41:45;-9.80;1.00
20231;DHT22;10274;49.022;9.338;2022-12-18T02:44:13;-9.70;1.00
20231;DHT22;10274;49.022;9.338;2022-12-18T02:46:42;-9.50;1.00
20231;DHT22;10274;49.022;9.338;2022-12-18T02:49:21;-9.40;1.00
20231;DHT22;10274;49.022;9.338;2022-12-18T02:51:52;-9.30;1.00
20231;DHT22;10274;49.022;9.338;2022-12-18T02:54:27;-9.30;1.00
20231;DHT22;10274;49.022;9.338;2022-12-18T02:57:03;-9.50;1.00
20231;DHT22;10274;49.022;9.338;2022-12-18T02:59:36;-9.90;1.00
20231;DHT22;10274;49.022;9.338;2022-12-18T03:02:12;-10.00;1.00
20231;DHT22;10274;49.022;9.338;2022-12-18T03:04:46;-10.10;1.00
20231;DHT22;10274;49.022;9.338;2022-12-18T03:07:18;-9.90;1.00
20231;DHT22;10274;49.022;9.338;2022-12-18T03:09:49;-9.80;1.00
20231;DHT22;10274;49.022;9.338;2022-12-18T03:12:20;-9.70;1.00
20231;DHT22;10274;49.022;9.338;2022-12-18T03:14:54;-9.70;1.00
20231;DHT22;10274;49.022;9.338;2022-12-18T03:17:23;-9.70;1.00
20231;DHT22;10274;49.022;9.338;2022-12-18T03:19:53;-9.80;1.00
20231;DHT22;10274;49.022;9.338;2022-12-18T03:22:23;-10.10;1.00
20231;DHT22;10274;49.022;9.338;2022-12-18T03:24:51;-10.10;1.00
20231;DHT22;10274;49.022;9.338;2022-12-18T03:27:22;-10.00;1.00
20231;DHT22;10274;49.022;9.338;2022-12-18T03:29:54;-9.80;1.00
20231;DHT22;10274;49.022;9.338;2022-12-18T03:32:27;-9.60;1.00
20231;DHT22;10274;49.022;9.338;2022-12-18T03:34:58;-9.90;1.00
20231;DHT22;10274;49.022;9.338;2022-12-18T03:37:26;-9.80;1.00
20231;DHT22;10274;49.022;9.338;2022-12-18T03:39:53;-9.90;1.00
20231;DHT22;10274;49.022;9.338;2022-12-18T03:42:25;-10.30;1.00
20231;DHT22;10274;49.022;9.338;2022-12-18T03:44:58;-10.30;1.00
20231;DHT22;10274;49.022;9.338;2022-12-18T03:47:33;-10.10;1.00
20231;DHT22;10274;49.022;9.338;2022-12-18T03:50:07;-10.20;1.00
20231;DHT22;10274;49.022;9.338;2022-12-18T03:52:40;-10.20;1.00
20231;DHT22;10274;49.022;9.338;2022-12-18T03:55:08;-10.00;1.00
20231;DHT22;10274;49.022;9.338;2022-12-18T03:57:38;-10.00;1.00
20231;DHT22;10274;49.022;9.338;2022-12-18T04:00:08;-10.20;1.00
20231;DHT22;10274;49.022;9.338;2022-12-18T04:02:38;-10.50;1.00
20231;DHT22;10274;49.022;9.338;2022-12-18T04:05:08;-10.50;1.00
20231;DHT22;10274;49.022;9.338;2022-12-18T04:07:38;-10.30;1.00
20231;DHT22;10274;49.022;9.338;2022-12-18T04:10:07;-10.20;1.00
20231;DHT22;10274;49.022;9.338;2022-12-18T04:12:34;-10.10;1.00
20231;DHT22;10274;49.022;9.338;2022-12-18T04:15:06;-10.10;1.00
20231;DHT22;10274;49.022;9.338;2022-12-18T04:17:33;-10.40;1.00
20231;DHT22;10274;49.022;9.338;2022-12-18T04:20:00;-10.30;1.00
20231;DHT22;10274;49.022;9.338;2022-12-18T04:22:27;-10.10;1.00
20231;DHT22;10274;49.022;9.338;2022-12-18T04:24:54;-10.00;1.00
20231;DHT22;10274;49.022;9.338;2022-12-18T04:27:20;-9.90;1.00
20231;DHT22;10274;49.022;9.338;2022-12-18T04:29:47;-10.10;1.00
20231;DHT22;10274;49.022;9.338;2022-12-18T04:32:15;-10.30;1.00
20231;DHT22;10274;49.022;9.338;2022-12-18T04:34:42;-10.20;1.00
20231;DHT22;10274;49.022;9.338;2022-12-18T04:37:09;-10.20;1.00
20231;DHT22;10274;49.022;9.338;2022-12-18T04:39:36;-10.10;1.00
20231;DHT22;10274;49.022;9.338;2022-12-18T04:42:03;-10.40;1.00
20231;DHT22;10274;49.022;9.338;2022-12-18T04:44:30;-10.50;1.00
20231;DHT22;10274;49.022;9.338;2022-12-18T04:46:56;-10.60;1.00
20231;DHT22;10274;49.022;9.338;2022-12-18T04:49:25;-10.50;1.00
20231;DHT22;10274;49.022;9.338;2022-12-18T04:51:51;-10.30;1.00
20231;DHT22;10274;49.022;9.338;2022-12-18T04:54:18;-10.10;1.00
20231;DHT22;10274;49.022;9.338;2022-12-18T04:56:45;-10.20;1.00
20231;DHT22;10274;49.022;9.338;2022-12-18T04:59:11;-10.20;1.00
20231;DHT22;10274;49.022;9.338;2022-12-18T05:01:38;-10.40;1.00
20231;DHT22;10274;49.022;9.338;2022-12-18T05:04:05;-10.60;1.00
20231;DHT22;10274;49.022;9.338;2022-12-18T05:06:33;-10.60;1.00
20231;DHT22;10274;49.022;9.338;2022-12-18T05:09:00;-10.50;1.00
20231;DHT22;10274;49.022;9.338;2022-12-18T05:11:26;-10.30;1.00
20231;DHT22;10274;49.022;9.338;2022-12-18T05:13:56;-10.40;1.00
20231;DHT22;10274;49.022;9.338;2022-12-18T05:16:23;-10.70;1.00
20231;DHT22;10274;49.022;9.338;2022-12-18T05:18:49;-10.60;1.00
20231;DHT22;10274;49.022;9.338;2022-12-18T05:21:16;-10.50;1.00
20231;DHT22;10274;49.022;9.338;2022-12-18T05:23:44;-10.50;1.00
20231;DHT22;10274;49.022;9.338;2022-12-18T05:26:16;-10.40;1.00
20231;DHT22;10274;49.022;9.338;2022-12-18T05:28:42;-10.40;1.00
20231;DHT22;10274;49.022;9.338;2022-12-18T05:31:10;-10.70;1.00
20231;DHT22;10274;49.022;9.338;2022-12-18T05:33:36;-10.60;1.00
20231;DHT22;10274;49.022;9.338;2022-12-18T05:36:05;-10.80;1.00
20231;DHT22;10274;49.022;9.338;2022-12-18T05:38:34;-10.90;1.00
20231;DHT22;10274;49.022;9.338;2022-12-18T05:41:03;-10.80;1.00
20231;DHT22;10274;49.022;9.338;2022-12-18T05:43:30;-10.80;1.00
20231;DHT22;10274;49.022;9.338;2022-12-18T05:45:56;-10.90;1.00
20231;DHT22;10274;49.022;9.338;2022-12-18T05:48:23;-11.10;1.00
20231;DHT22;10274;49.022;9.338;2022-12-18T05:50:50;-10.90;1.00
20231;DHT22;10274;49.022;9.338;2022-12-18T05:53:19;-10.90;1.00
20231;DHT22;10274;49.022;9.338;2022-12-18T05:55:46;-10.80;1.00
20231;DHT22;10274;49.022;9.338;2022-12-18T05:58:15;-10.90;1.00
20231;DHT22;10274;49.022;9.338;2022-12-18T06:00:44;-10.20;1.00
20231;DHT22;10274;49.022;9.338;2022-12-18T06:03:12;-10.70;1.00
20231;DHT22;10274;49.022;9.338;2022-12-18T06:05:41;-10.70;1.00
20231;DHT22;10274;49.022;9.338;2022-12-18T06:08:09;-10.70;1.00
20231;DHT22;10274;49.022;9.338;2022-12-18T06:10:36;-10.80;1.00
20231;DHT22;10274;49.022;9.338;2022-12-18T06:13:03;-10.90;1.00
20231;DHT22;10274;49.022;9.338;2022-12-18T06:15:32;-10.70;1.00
20231;DHT22;10274;49.022;9.338;2022-12-18T06:18:00;-10.70;1.00
20231;DHT22;10274;49.022;9.338;2022-12-18T06:20:30;-10.70;1.00
20231;DHT22;10274;49.022;9.338;2022-12-18T06:22:57;-10.50;1.00
20231;DHT22;10274;49.022;9.338;2022-12-18T06:25:23;-10.40;1.00
20231;DHT22;10274;49.022;9.338;2022-12-18T06:27:50;-10.70;1.00
20231;DHT22;10274;49.022;9.338;2022-12-18T06:30:17;-10.50;1.00
20231;DHT22;10274;49.022;9.338;2022-12-18T06:32:45;-10.30;1.00
20231;DHT22;10274;49.022;9.338;2022-12-18T06:35:12;-10.40;1.00
20231;DHT22;10274;49.022;9.338;2022-12-18T06:37:38;-10.40;1.00
20231;DHT22;10274;49.022;9.338;2022-12-18T06:40:06;-10.90;1.00
20231;DHT22;10274;49.022;9.338;2022-12-18T06:42:33;-10.70;1.00
20231;DHT22;10274;49.022;9.338;2022-12-18T06:45:00;-10.80;1.00
20231;DHT22;10274;49.022;9.338;2022-12-18T06:47:26;-10.80;1.00
20231;DHT22;10274;49.022;9.338;2022-12-18T06:49:55;-10.60;1.00
20231;DHT22;10274;49.022;9.338;2022-12-18T06:52:21;-10.60;1.00
20231;DHT22;10274;49.022;9.338;2022-12-18T06:54:48;-10.70;1.00
20231;DHT22;10274;49.022;9.338;2022-12-18T06:57:15;-10.60;1.00
20231;DHT22;10274;49.022;9.338;2022-12-18T06:59:41;-10.40;1.00
20231;DHT22;10274;49.022;9.338;2022-12-18T07:02:11;-10.70;1.00
20231;DHT22;10274;49.022;9.338;2022-12-18T07:04:38;-10.60;1.00
20231;DHT22;10274;49.022;9.338;2022-12-18T07:07:06;-10.60;1.00
20231;DHT22;10274;49.022;9.338;2022-12-18T07:09:33;-10.30;1.00
20231;DHT22;10274;49.022;9.338;2022-12-18T07:11:59;-10.50;1.00
20231;DHT22;10274;49.022;9.338;2022-12-18T07:14:26;-10.30;1.00
20231;DHT22;10274;49.022;9.338;2022-12-18T07:16:53;-10.40;1.00
20231;DHT22;10274;49.022;9.338;2022-12-18T07:19:20;-10.30;1.00
20231;DHT22;10274;49.022;9.338;2022-12-18T07:21:46;-10.40;1.00
20231;DHT22;10274;49.022;9.338;2022-12-18T07:24:14;-10.60;1.00
20231;DHT22;10274;49.022;9.338;2022-12-18T07:26:41;-10.60;1.00
20231;DHT22;10274;49.022;9.338;2022-12-18T07:29:08;-10.50;1.00
20231;DHT22;10274;49.022;9.338;2022-12-18T07:31:35;-10.50;1.00
20231;DHT22;10274;49.022;9.338;2022-12-18T07:34:01;-10.40;1.00
20231;DHT22;10274;49.022;9.338;2022-12-18T07:36:28;-10.30;1.00
20231;DHT22;10274;49.022;9.338;2022-12-18T07:38:55;-10.20;1.00
20231;DHT22;10274;49.022;9.338;2022-12-18T07:41:23;-10.10;1.00
20231;DHT22;10274;49.022;9.338;2022-12-18T07:43:49;-9.60;1.00
20231;DHT22;10274;49.022;9.338;2022-12-18T07:46:16;-9.60;1.00
20231;DHT22;10274;49.022;9.338;2022-12-18T07:48:43;-9.60;1.00
20231;DHT22;10274;49.022;9.338;2022-12-18T07:51:10;-9.30;1.00
20231;DHT22;10274;49.022;9.338;2022-12-18T07:53:38;-9.10;1.00
20231;DHT22;10274;49.022;9.338;2022-12-18T07:56:08;-9.10;1.00
20231;DHT22;10274;49.022;9.338;2022-12-18T07:58:37;-9.20;1.00
20231;DHT22;10274;49.022;9.338;2022-12-18T08:01:04;-8.40;1.00
20231;DHT22;10274;49.022;9.338;2022-12-18T08:03:31;-8.30;1.00
20231;DHT22;10274;49.022;9.338;2022-12-18T08:05:59;-6.20;1.00
20231;DHT22;10274;49.022;9.338;2022-12-18T08:08:26;-4.70;1.00
20231;DHT22;10274;49.022;9.338;2022-12-18T08:10:53;-3.60;1.00
20231;DHT22;10274;49.022;9.338;2022-12-18T08:13:20;-3.00;1.00
20231;DHT22;10274;49.022;9.338;2022-12-18T08:15:55;-2.50;1.00
20231;DHT22;10274;49.022;9.338;2022-12-18T08:18:23;-2.20;1.00
20231;DHT22;10274;49.022;9.338;2022-12-18T08:20:50;-1.90;99.90
20231;DHT22;10274;49.022;9.338;2022-12-18T08:23:17;-1.80;99.90
20231;DHT22;10274;49.022;9.338;2022-12-18T08:25:43;-2.60;1.00
20231;DHT22;10274;49.022;9.338;2022-12-18T08:28:10;-2.40;99.90
20231;DHT22;10274;49.022;9.338;2022-12-18T08:30:37;-3.00;1.00
20231;DHT22;10274;49.022;9.338;2022-12-18T08:33:05;-2.90;1.00
20231;DHT22;10274;49.022;9.338;2022-12-18T08:35:35;-2.40;99.90
20231;DHT22;10274;49.022;9.338;2022-12-18T08:38:02;-1.90;1.00
20231;DHT22;10274;49.022;9.338;2022-12-18T08:40:29;-2.20;1.00
20231;DHT22;10274;49.022;9.338;2022-12-18T08:42:56;-2.40;1.00
20231;DHT22;10274;49.022;9.338;2022-12-18T08:45:40;-2.30;1.00
20231;DHT22;10274;49.022;9.338;2022-12-18T08:48:08;-1.80;99.90
20231;DHT22;10274;49.022;9.338;2022-12-18T08:50:35;-2.10;1.00
20231;DHT22;10274;49.022;9.338;2022-12-18T08:53:02;-1.80;99.90
20231;DHT22;10274;49.022;9.338;2022-12-18T08:55:29;-2.10;1.00
20231;DHT22;10274;49.022;9.338;2022-12-18T08:57:55;-1.50;99.90
20231;DHT22;10274;49.022;9.338;2022-12-18T09:00:22;-1.10;1.00
20231;DHT22;10274;49.022;9.338;2022-12-18T09:02:49;-1.30;1.00
20231;DHT22;10274;49.022;9.338;2022-12-18T09:05:17;-1.20;1.00
20231;DHT22;10274;49.022;9.338;2022-12-18T09:07:44;-1.10;1.00
20231;DHT22;10274;49.022;9.338;2022-12-18T09:10:10;-0.70;1.00
20231;DHT22;10274;49.022;9.338;2022-12-18T09:12:37;-0.90;1.00
20231;DHT22;10274;49.022;9.338;2022-12-18T09:15:05;-0.90;1.00
20231;DHT22;10274;49.022;9.338;2022-12-18T09:17:32;-0.70;1.00
20231;DHT22;10274;49.022;9.338;2022-12-18T09:19:59;-0.40;1.00
20231;DHT22;10274;49.022;9.338;2022-12-18T09:22:27;0.30;99.90
20231;DHT22;10274;49.022;9.338;2022-12-18T09:24:53;0.40;1.00
20231;DHT22;10274;49.022;9.338;2022-12-18T09:27:20;1.10;1.00
20231;DHT22;10274;49.022;9.338;2022-12-18T09:29:47;0.60;1.00
20231;DHT22;10274;49.022;9.338;2022-12-18T09:32:14;0.50;1.00
20231;DHT22;10274;49.022;9.338;2022-12-18T09:34:40;0.70;1.00
20231;DHT22;10274;49.022;9.338;2022-12-18T09:37:07;1.10;1.00
20231;DHT22;10274;49.022;9.338;2022-12-18T09:39:35;2.00;1.00
20231;DHT22;10274;49.022;9.338;2022-12-18T09:42:02;2.60;99.90
20231;DHT22;10274;49.022;9.338;2022-12-18T09:44:32;2.40;99.90
20231;DHT22;10274;49.022;9.338;2022-12-18T09:47:09;2.10;99.90
20231;DHT22;10274;49.022;9.338;2022-12-18T09:49:42;2.90;99.90
20231;DHT22;10274;49.022;9.338;2022-12-18T09:52:13;3.20;99.90
20231;DHT22;10274;49.022;9.338;2022-12-18T09:54:45;2.70;99.90
20231;DHT22;10274;49.022;9.338;2022-12-18T09:57:15;2.30;99.90
20231;DHT22;10274;49.022;9.338;2022-12-18T09:59:47;2.90;99.90
20231;DHT22;10274;49.022;9.338;2022-12-18T10:02:18;3.00;99.90
20231;DHT22;10274;49.022;9.338;2022-12-18T10:04:50;2.60;99.90
20231;DHT22;10274;49.022;9.338;2022-12-18T10:07:26;2.00;99.90
20231;DHT22;10274;49.022;9.338;2022-12-18T10:10:03;1.60;99.90
20231;DHT22;10274;49.022;9.338;2022-12-18T10:12:38;2.10;99.90
20231;DHT22;10274;49.022;9.338;2022-12-18T10:15:15;1.50;99.90
20231;DHT22;10274;49.022;9.338;2022-12-18T10:17:45;1.30;99.90
20231;DHT22;10274;49.022;9.338;2022-12-18T10:20:17;1.40;99.90
20231;DHT22;10274;49.022;9.338;2022-12-18T10:22:52;1.60;99.90
20231;DHT22;10274;49.022;9.338;2022-12-18T10:25:26;1.70;99.90
20231;DHT22;10274;49.022;9.338;2022-12-18T10:27:57;1.70;99.90
20231;DHT22;10274;49.022;9.338;2022-12-18T10:30:25;1.80;99.90
20231;DHT22;10274;49.022;9.338;2022-12-18T10:32:52;2.10;99.90
20231;DHT22;10274;49.022;9.338;2022-12-18T10:35:21;2.90;99.90
20231;DHT22;10274;49.022;9.338;2022-12-18T10:38:07;3.40;99.90
20231;DHT22;10274;49.022;9.338;2022-12-18T10:40:48;3.10;99.90
20231;DHT22;10274;49.022;9.338;2022-12-18T10:43:20;4.30;99.90
20231;DHT22;10274;49.022;9.338;2022-12-18T10:46:07;4.40;99.90
20231;DHT22;10274;49.022;9.338;2022-12-18T10:48:47;4.20;99.90
20231;DHT22;10274;49.022;9.338;2022-12-18T10:51:20;3.70;99.90
20231;DHT22;10274;49.022;9.338;2022-12-18T10:53:52;4.00;99.90
20231;DHT22;10274;49.022;9.338;2022-12-18T10:56:22;4.10;96.70
20231;DHT22;10274;49.022;9.338;2022-12-18T10:58:57;4.00;99.90
20231;DHT22;10274;49.022;9.338;2022-12-18T11:01:24;3.90;99.90
20231;DHT22;10274;49.022;9.338;2022-12-18T11:04:00;3.30;99.90
20231;DHT22;10274;49.022;9.338;2022-12-18T11:06:28;3.90;99.90
20231;DHT22;10274;49.022;9.338;2022-12-18T11:09:00;2.50;99.90
20231;DHT22;10274;49.022;9.338;2022-12-18T11:11:29;2.00;99.90
20231;DHT22;10274;49.022;9.338;2022-12-18T11:14:01;2.20;99.90
20231;DHT22;10274;49.022;9.338;2022-12-18T11:16:30;2.00;99.90
20231;DHT22;10274;49.022;9.338;2022-12-18T11:19:19;2.70;99.90
20231;DHT22;10274;49.022;9.338;2022-12-18T11:21:47;2.70;99.90
20231;DHT22;10274;49.022;9.338;2022-12-18T11:24:20;2.90;99.90
20231;DHT22;10274;49.022;9.338;2022-12-18T11:26:48;1.80;99.90
20231;DHT22;10274;49.022;9.338;2022-12-18T11:29:17;1.90;99.90
20231;DHT22;10274;49.022;9.338;2022-12-18T11:31:44;2.60;99.90
20231;DHT22;10274;49.022;9.338;2022-12-18T11:34:14;3.10;99.90
20231;DHT22;10274;49.022;9.338;2022-12-18T11:36:45;3.90;99.90
20231;DHT22;10274;49.022;9.338;2022-12-18T11:39:17;3.00;99.90
20231;DHT22;10274;49.022;9.338;2022-12-18T11:41:52;2.40;99.90
20231;DHT22;10274;49.022;9.338;2022-12-18T11:44:42;2.70;99.90
20231;DHT22;10274;49.022;9.338;2022-12-18T11:47:18;2.50;99.90
20231;DHT22;10274;49.022;9.338;2022-12-18T11:49:49;2.00;99.90
20231;DHT22;10274;49.022;9.338;2022-12-18T11:52:18;1.80;99.90
20231;DHT22;10274;49.022;9.338;2022-12-18T11:54:46;2.20;99.90
20231;DHT22;10274;49.022;9.338;2022-12-18T11:57:27;1.10;99.90
20231;DHT22;10274;49.022;9.338;2022-12-18T12:00:00;1.30;99.90
20231;DHT22;10274;49.022;9.338;2022-12-18T12:02:46;2.40;99.90
20231;DHT22;10274;49.022;9.338;2022-12-18T12:08:09;2.00;99.90
20231;DHT22;10274;49.022;9.338;2022-12-18T12:10:46;2.50;99.90
20231;DHT22;10274;49.022;9.338;2022-12-18T12:13:27;3.10;99.90
20231;DHT22;10274;49.022;9.338;2022-12-18T12:16:10;2.70;99.90
20231;DHT22;10274;49.022;9.338;2022-12-18T12:21:37;3.40;99.90
20231;DHT22;10274;49.022;9.338;2022-12-18T12:24:18;3.70;99.90
20231;DHT22;10274;49.022;9.338;2022-12-18T12:26:53;3.40;99.90
20231;DHT22;10274;49.022;9.338;2022-12-18T12:29:34;2.70;99.90
20231;DHT22;10274;49.022;9.338;2022-12-18T12:32:12;2.10;99.90
20231;DHT22;10274;49.022;9.338;2022-12-18T12:34:52;1.70;99.90
20231;DHT22;10274;49.022;9.338;2022-12-18T12:37:29;1.40;99.90
20231;DHT22;10274;49.022;9.338;2022-12-18T12:39:57;1.40;99.90
20231;DHT22;10274;49.022;9.338;2022-12-18T12:42:31;1.70;99.90
20231;DHT22;10274;49.022;9.338;2022-12-18T12:45:18;1.60;99.90
20231;DHT22;10274;49.022;9.338;2022-12-18T12:47:49;2.00;99.90
20231;DHT22;10274;49.022;9.338;2022-12-18T12:50:18;2.30;99.90
20231;DHT22;10274;49.022;9.338;2022-12-18T12:52:47;2.30;99.90
20231;DHT22;10274;49.022;9.338;2022-12-18T12:55:18;2.30;99.90
20231;DHT22;10274;49.022;9.338;2022-12-18T12:57:51;2.50;99.90
20231;DHT22;10274;49.022;9.338;2022-12-18T13:00:20;2.60;99.90
20231;DHT22;10274;49.022;9.338;2022-12-18T13:02:52;2.60;99.90
20231;DHT22;10274;49.022;9.338;2022-12-18T13:05:25;2.40;99.90
20231;DHT22;10274;49.022;9.338;2022-12-18T13:07:59;1.60;99.90
20231;DHT22;10274;49.022;9.338;2022-12-18T13:10:33;1.80;99.90
20231;DHT22;10274;49.022;9.338;2022-12-18T13:13:02;2.20;99.90
20231;DHT22;10274;49.022;9.338;2022-12-18T13:15:37;2.00;99.90
20231;DHT22;10274;49.022;9.338;2022-12-18T13:18:12;1.60;99.90
20231;DHT22;10274;49.022;9.338;2022-12-18T13:20:41;1.90;99.90
20231;DHT22;10274;49.022;9.338;2022-12-18T13:23:29;1.50;99.90
20231;DHT22;10274;49.022;9.338;2022-12-18T13:25:58;1.70;99.90
20231;DHT22;10274;49.022;9.338;2022-12-18T13:28:50;1.40;99.90
20231;DHT22;10274;49.022;9.338;2022-12-18T13:34:34;1.60;99.90
20231;DHT22;10274;49.022;9.338;2022-12-18T13:43:01;1.30;99.90
20231;DHT22;10274;49.022;9.338;2022-12-18T13:45:48;1.30;99.90
20231;DHT22;10274;49.022;9.338;2022-12-18T13:48:21;1.00;99.90
20231;DHT22;10274;49.022;9.338;2022-12-18T13:50:53;1.10;99.90
20231;DHT22;10274;49.022;9.338;2022-12-18T13:53:24;0.90;99.90
20231;DHT22;10274;49.022;9.338;2022-12-18T13:55:52;1.10;99.90
20231;DHT22;10274;49.022;9.338;2022-12-18T13:58:19;1.10;99.90
20231;DHT22;10274;49.022;9.338;2022-12-18T14:00:45;1.20;1.00
20231;DHT22;10274;49.022;9.338;2022-12-18T14:03:18;1.40;1.00
20231;DHT22;10274;49.022;9.338;2022-12-18T14:05:45;1.30;99.90
20231;DHT22;10274;49.022;9.338;2022-12-18T14:08:19;1.10;99.90
20231;DHT22;10274;49.022;9.338;2022-12-18T14:10:48;0.70;1.00
20231;DHT22;10274;49.022;9.338;2022-12-18T14:13:21;0.80;1.00
20231;DHT22;10274;49.022;9.338;2022-12-18T14:15:50;0.80;1.00
20231;DHT22;10274;49.022;9.338;2022-12-18T14:18:21;0.70;1.00
20231;DHT22;10274;49.022;9.338;2022-12-18T14:20:50;0.60;1.00
20231;DHT22;10274;49.022;9.338;2022-12-18T14:23:33;0.50;1.00
20231;DHT22;10274;49.022;9.338;2022-12-18T14:26:01;0.60;1.00
20231;DHT22;10274;49.022;9.338;2022-12-18T14:28:28;0.30;1.00
20231;DHT22;10274;49.022;9.338;2022-12-18T14:30:55;0.10;11.20
20231;DHT22;10274;49.022;9.338;2022-12-18T14:33:24;0.20;99.90
20231;DHT22;10274;49.022;9.338;2022-12-18T14:35:57;0.30;99.90
20231;DHT22;10274;49.022;9.338;2022-12-18T14:38:27;0.20;99.90
20231;DHT22;10274;49.022;9.338;2022-12-18T14:40:57;0.10;99.90
20231;DHT22;10274;49.022;9.338;2022-12-18T14:43:24;-0.10;1.00
20231;DHT22;10274;49.022;9.338;2022-12-18T14:45:51;-0.20;1.00
20231;DHT22;10274;49.022;9.338;2022-12-18T14:48:20;-0.40;99.90
20231;DHT22;10274;49.022;9.338;2022-12-18T14:50:56;-0.40;6.80
20231;DHT22;10274;49.022;9.338;2022-12-18T14:53:32;-0.40;1.00
20231;DHT22;10274;49.022;9.338;2022-12-18T14:56:02;-0.40;1.00
20231;DHT22;10274;49.022;9.338;2022-12-18T14:58:29;-0.60;99.90
20231;DHT22;10274;49.022;9.338;2022-12-18T15:00:56;-0.50;23.70
20231;DHT22;10274;49.022;9.338;2022-12-18T15:03:23;-0.60;99.90
20231;DHT22;10274;49.022;9.338;2022-12-18T15:05:49;-0.60;99.90
20231;DHT22;10274;49.022;9.338;2022-12-18T15:08:34;-0.90;1.00
20231;DHT22;10274;49.022;9.338;2022-12-18T15:11:03;-1.10;1.00
20231;DHT22;10274;49.022;9.338;2022-12-18T15:13:29;-1.20;1.00
20231;DHT22;10274;49.022;9.338;2022-12-18T15:15:57;-1.20;1.00
20231;DHT22;10274;49.022;9.338;2022-12-18T15:18:31;-1.10;1.00
20231;DHT22;10274;49.022;9.338;2022-12-18T15:21:03;-0.90;99.90
20231;DHT22;10274;49.022;9.338;2022-12-18T15:23:36;-0.90;1.00
20231;DHT22;10274;49.022;9.338;2022-12-18T15:26:06;-0.90;1.00
20231;DHT22;10274;49.022;9.338;2022-12-18T15:28:35;-1.00;99.90
20231;DHT22;10274;49.022;9.338;2022-12-18T15:31:06;-1.00;1.00
20231;DHT22;10274;49.022;9.338;2022-12-18T15:34:04;-1.10;33.50
20231;DHT22;10274;49.022;9.338;2022-12-18T15:36:31;-1.10;1.00
20231;DHT22;10274;49.022;9.338;2022-12-18T15:39:02;-1.10;1.00
20231;DHT22;10274;49.022;9.338;2022-12-18T15:41:31;-1.20;99.90
20231;DHT22;10274;49.022;9.338;2022-12-18T15:43:58;-1.10;99.90
20231;DHT22;10274;49.022;9.338;2022-12-18T15:46:25;-1.20;99.90
20231;DHT22;10274;49.022;9.338;2022-12-18T15:48:53;-1.20;99.90
20231;DHT22;10274;49.022;9.338;2022-12-18T15:51:22;-1.20;99.90
20231;DHT22;10274;49.022;9.338;2022-12-18T15:53:51;-1.30;1.00
20231;DHT22;10274;49.022;9.338;2022-12-18T15:56:19;-1.40;1.00
20231;DHT22;10274;49.022;9.338;2022-12-18T15:59:09;-1.40;99.90
20231;DHT22;10274;49.022;9.338;2022-12-18T16:01:36;-1.40;99.90
20231;DHT22;10274;49.022;9.338;2022-12-18T16:04:03;-1.30;99.90
20231;DHT22;10274;49.022;9.338;2022-12-18T16:06:30;-1.40;1.00
20231;DHT22;10274;49.022;9.338;2022-12-18T16:08:57;-1.40;99.90
20231;DHT22;10274;49.022;9.338;2022-12-18T16:11:26;-1.50;99.90
20231;DHT22;10274;49.022;9.338;2022-12-18T16:14:17;-1.40;99.90
20231;DHT22;10274;49.022;9.338;2022-12-18T16:16:44;-1.40;1.00